• Join FlightAware (Why Join?)
  • Login
  • US Flag 
05:35AM EDT


 

Airport Tracker/Info


-or-


 

Live Flight TrackerFlight Track Log ✈ AAL2007 ✈ 19-Jul-2013 ✈ KORD - KAUS

Flight Track Log - Related Links

Times and Time Zones

All times are in EDT time to prevent confusion due to time zone crossing. See the AAL2007 flight status page for this flight to view local times or setup timezone preferences in your user account.

Time Position Orientation Groundspeed Altitude Reporting Facility
EDT Latitude Longitude Course Direction KTS MPH feet Rate Location/Type
06:01PM 41.8872 -87.9256 203° Southwest 192 221 3,600  Level Chicago Center
06:02PM 41.8194 -87.9481 194° South 242 278 5,800 2,280 Climbing Chicago Center
06:03PM 41.6990 -88.1895 201° Southwest  Level Estimated
06:04PM 41.6047 -88.2832 197° South  Level Estimated
06:04PM 41.7486 -87.9725 194° South 263 303 8,400  Level Chicago Center
06:05PM 41.5102 -88.3767 194° South  Level Estimated
06:05PM 41.6631 -88.0219 203° Southwest 283 326 11,400  Level Chicago Center
06:06PM 41.4157 -88.4699 207° Southwest  Level Estimated
06:06PM 41.5825 -88.0703 204° Southwest 314 361 12,300  Level Chicago Center
06:07PM 41.3253 -88.5587 194° South  Level Estimated
06:07PM 41.4928 -88.1272 205° Southwest 355 409 14,800  Level Chicago Center
06:08PM 41.2349 -88.6472 203° Southwest  Level Estimated
06:08PM 41.3794 -88.1919 203° Southwest 388 447 17,300  Level Chicago Center
06:10PM 41.1806 -88.2814 199° South 398 458 21,100 1,860 Climbing Kansas City Center
06:11PM 41.0703 -88.3292 198° South 410 472 23,100 1,680 Climbing Kansas City Center
06:12PM 40.9611 -88.3786 199° South 414 476 24,600 1,440 Climbing Kansas City Center
06:13PM 40.8550 -88.4458 206° Southwest 423 487 26,100 1,380 Climbing Kansas City Center
06:14PM 40.7367 -88.5658 218° Southwest 426 490 27,600 1,440 Climbing Chicago Center
06:15PM 40.6439 -88.6628 218° Southwest 429 494 29,200 1,320 Climbing Chicago Center
06:16PM 40.5525 -88.7606 219° Southwest 428 493 30,400 1,200 Climbing Chicago Center
06:17PM 40.4442 -88.8731 218° Southwest 427 491 31,700 1,200 Climbing Chicago Center
06:18PM 40.3503 -88.9708 218° Southwest 428 493 32,900 960 Climbing Chicago Center
06:19PM 40.2556 -89.0681 218° Southwest 430 495 33,800 480 Climbing Chicago Center
06:20PM 40.1631 -89.1636 218° Southwest 426 490 34,000 60 Climbing Chicago Center
06:21PM 40.0522 -89.2769 218° Southwest 424 488 34,000  Level Kansas City Center
06:22PM 39.9586 -89.3728 218° Southwest 425 489 34,000  Level Kansas City Center
06:23PM 39.8672 -89.4697 219° Southwest 425 489 34,000  Level Kansas City Center
06:24PM 39.7961 -89.5928 233° Southwest 425 489 34,000  Level Kansas City Center
06:25PM 39.7303 -89.7172 236° Southwest 418 481 34,000  Level Kansas City Center
06:26PM 39.6689 -89.8439 238° Southwest 421 484 34,000  Level Kansas City Center
06:27PM 39.6011 -90.0050 241° Southwest 423 487 34,000  Level Kansas City Center
06:28PM 39.5436 -90.1389 241° Southwest 426 490 34,000  Level Kansas City Center
06:29PM 39.4878 -90.2731 242° Southwest 425 489 34,000  Level Kansas City Center
06:31PM 39.4286 -90.4056 240° Southwest 427 491 34,000  Level Kansas City Center
06:32PM 39.3683 -90.5356 239° Southwest 425 489 34,000  Level Kansas City Center
06:33PM 39.2903 -90.6878 237° Southwest 426 490 34,000  Level Kansas City Center
06:34PM 39.2247 -90.8147 236° Southwest 427 491 34,000  Level Kansas City Center
06:35PM 39.1614 -90.9431 238° Southwest 427 491 34,000  Level Kansas City Center
06:36PM 39.0975 -91.0711 237° Southwest 428 493 34,000  Level Kansas City Center
06:37PM 39.0289 -91.1944 234° Southwest 428 493 34,000  Level Kansas City Center
06:38PM 38.9422 -91.3417 233° Southwest 433 498 34,000  Level Kansas City Center
06:39PM 38.8714 -91.4658 234° Southwest 434 499 34,000  Level Kansas City Center
06:40PM 38.7997 -91.5906 234° Southwest 436 502 34,000  Level Kansas City Center
06:41PM 38.7256 -91.7217 234° Southwest 433 498 34,000  Level Kansas City Center
06:42PM 38.6544 -91.8464 234° Southwest 433 498 34,000  Level Kansas City Center
06:43PM 38.5839 -91.9728 234° Southwest 436 502 34,000  Level Kansas City Center
06:44PM 38.5133 -92.0978 234° Southwest 435 501 34,000  Level Kansas City Center
06:45PM 38.4278 -92.2478 234° Southwest 437 503 34,000  Level Kansas City Center
06:46PM 38.3556 -92.3717 233° Southwest 437 503 34,000  Level Kansas City Center
06:47PM 38.2619 -92.4694 219° Southwest 441 507 34,000  Level Kansas City Center
06:48PM 38.1706 -92.5578 217° Southwest 440 506 34,000  Level Kansas City Center
06:49PM 38.0728 -92.6517 217° Southwest 441 507 34,000  Level Kansas City Center
06:50PM 37.9497 -92.7633 216° Southwest 444 511 34,000  Level Kansas City Center
06:52PM 37.8267 -92.8812 217° Southwest  Level FlightAware Approximate
06:52PM 37.7561 -92.9544 217° Southwest 443 510 34,000  Level Kansas City Center
06:54PM 37.6430 -93.0605 217° Southwest  Level FlightAware Approximate
06:56PM 37.3444 -93.3411 218° Southwest 440 506 34,000  Level Kansas City Center
06:57PM 37.2489 -93.4392 219° Southwest 441 507 34,000  Level Kansas City Center
06:58PM 37.1553 -93.5389 220° Southwest 442 509 34,000  Level Kansas City Center
06:59PM 37.0594 -93.6367 219° Southwest 442 509 34,000  Level Kansas City Center
07:01PM 37.0079 -93.6712 218° Southwest  Level FlightAware Approximate
07:01PM 36.9631 -93.7350 219° Southwest 445 512 34,000  Level Kansas City Center
07:02PM 36.9179 -93.7594 218° Southwest  Level FlightAware Approximate
07:02PM 36.8575 -93.8403 219° Southwest 446 513 34,000  Level Kansas City Center
07:03PM 36.7586 -93.9375 218° Southwest 448 516 34,000  Level Kansas City Center
07:04PM 36.6603 -94.0367 219° Southwest 452 520 34,000  Level Kansas City Center
07:05PM 36.5625 -94.1358 219° Southwest 451 519 34,000  Level Kansas City Center
07:06PM 36.4431 -94.2528 218° Southwest 453 521 34,000  Level Kansas City Center
07:07PM 36.3453 -94.3500 219° Southwest 451 519 34,000  Level Kansas City Center
07:08PM 36.2456 -94.4481 218° Southwest 453 521 34,000  Level Kansas City Center
07:09PM 36.1461 -94.5461 219° Southwest 452 520 34,000  Level Kansas City Center
07:10PM 36.0458 -94.6428 218° Southwest 454 522 34,000  Level Kansas City Center
07:11PM 35.9467 -94.7381 218° Southwest 451 519 34,000  Level Kansas City Center
07:12PM 35.8472 -94.8356 218° Southwest 451 519 34,000  Level Kansas City Center
07:13PM 35.7461 -94.9336 218° Southwest 455 524 34,000  Level Kansas City Center
07:14PM 35.6253 -95.0486 218° Southwest 455 524 34,000  Level Kansas City Center
07:15PM 35.5239 -95.1453 218° Southwest 457 526 34,000  Level Kansas City Center
07:17PM 35.3758 -95.2903 219° Southwest 458 527 34,000  Level Fort Worth Center
07:18PM 35.2731 -95.3869 218° Southwest 458 527 34,000  Level Fort Worth Center
07:19PM 35.1725 -95.4833 218° Southwest 458 527 34,000  Level Fort Worth Center
07:20PM 35.0650 -95.5594 210° Southwest 450 518 34,000  Level Fort Worth Center
07:21PM 34.9492 -95.6200 203° Southwest 445 512 34,000  Level Fort Worth Center
07:22PM 34.8208 -95.6861 203° Southwest 455 524 34,000  Level Fort Worth Center
07:23PM 34.7069 -95.7464 204° Southwest 455 524 34,000  Level Fort Worth Center
07:24PM 34.5908 -95.8042 202° Southwest 450 518 34,000  Level Fort Worth Center
07:25PM 34.4747 -95.8642 203° Southwest 450 518 34,000  Level Fort Worth Center
07:26PM 34.3586 -95.9242 203° Southwest 455 524 34,000  Level Fort Worth Center
07:27PM 34.2425 -95.9839 203° Southwest 455 524 34,000  Level Fort Worth Center
07:28PM 34.1242 -96.0436 203° Southwest 455 524 34,000  Level Fort Worth Center
07:29PM 34.0286 -96.0903 202° Southwest 447 514 34,000  Level Fort Worth Center
07:30PM 33.9125 -96.1519 204° Southwest 447 514 34,000  Level Fort Worth Center
07:31PM 33.7961 -96.2086 202° Southwest 447 514 34,000  Level Fort Worth Center
07:32PM 33.6797 -96.2678 203° Southwest 453 521 34,000  Level Fort Worth Center
07:33PM 33.5656 -96.3217 201° Southwest 453 521 34,000  Level Fort Worth Center
07:34PM 33.4533 -96.3803 204° Southwest 453 521 34,000  Level Fort Worth Center
07:35PM 33.3389 -96.4386 203° Southwest 453 521 34,000  Level Fort Worth Center
07:36PM 33.2225 -96.4972 203° Southwest 458 527 34,000  Level Fort Worth Center
07:37PM 33.1061 -96.5553 203° Southwest 458 527 34,000  Level Fort Worth Center
07:38PM 32.9811 -96.6186 203° Southwest 458 527 34,000  Level Fort Worth Center
07:39PM 32.8603 -96.6664 198° South 458 527 34,000  Level Fort Worth Center
07:40PM 32.7353 -96.7047 194° South 458 527 34,000 -1,440 Level Fort Worth Center
07:41PM 32.6144 -96.7475 197° South 458 527 31,200 -1,920 Descending Fort Worth Center
07:42PM 32.4875 -96.7878 195° South 458 527 30,200 -960 Descending Fort Worth Center
07:43PM 32.3644 -96.8306 196° South 463 533 29,300 -4,140 Descending Fort Worth Center
07:44PM 32.2372 -96.8706 195° South 463 533 22,000 -1,080 Descending Fort Worth Center
07:45PM 32.1122 -96.9131 196° South 473 544 27,200 2,100 Climbing Fort Worth Center
07:46PM 31.9892 -96.9553 196° South 473 544 26,300 -840 Descending Fort Worth Center
07:47PM 31.8703 -96.9903 194° South 463 533 25,600 -780 Descending Fort Worth Center
07:48PM 31.7583 -97.0294 197° South 444 511 24,800 -900 Descending Houston Center
07:49PM 31.6417 -97.0683 196° South 432 497 23,800 -1,080 Descending Houston Center
07:50PM 31.5064 -97.1131 196° South 429 494 22,600 -1,080 Descending Houston Center
07:51PM 31.3914 -97.1506 196° South 424 488 21,600 -1,140 Descending Houston Center
07:52PM 31.2808 -97.1911 197° South 415 478 20,300 -1,560 Descending Houston Center
07:53PM 31.1761 -97.2303 198° South 394 453 18,400 -1,800 Descending Houston Center
07:54PM 31.0736 -97.2672 197° South 385 443 16,600 -1,800 Descending Houston Center
07:55PM 30.9778 -97.3031 198° South 370 426 14,700 -1,620 Descending Houston Center
07:56PM 30.8672 -97.3422 197° South 367 422 13,300 -1,320 Descending Houston Center
07:57PM 30.7733 -97.3761 197° South 355 409 12,100 -1,200 Descending Houston Center
07:58PM 30.6847 -97.4117 199° South 339 390 10,900 -1,080 Descending Houston Center
07:59PM 30.6050 -97.4431 199° South 304 350 9,900 -1,140 Descending Houston Center
08:00PM 30.5328 -97.4819 205° Southwest 292 336 8,600 -1,800 Descending Houston Center
08:01PM 30.4719 -97.5381 218° Southwest 277 319 6,300 -1,800 Descending Houston Center
08:02PM 30.4161 -97.5953 221° Southwest 269 310 5,000 -1,260 Descending Houston Center